地図

経路データ

SID SEASON NUMBER BASIN SUBBASIN NAME ISO_TIME NATURE LAT LON WMO_WIND WMO_PRES WMO_AGENCY TRACK_TYPE DIST2LAND LANDFALL IFLAG USA_AGENCY USA_ATCF_ID USA_LAT USA_LON USA_RECORD USA_STATUS USA_WIND USA_PRES USA_SSHS USA_R34_NE USA_R34_SE USA_R34_SW USA_R34_NW USA_R50_NE USA_R50_SE USA_R50_SW USA_R50_NW USA_R64_NE USA_R64_SE USA_R64_SW USA_R64_NW USA_POCI USA_ROCI USA_RMW USA_EYE TOKYO_LAT TOKYO_LON TOKYO_GRADE TOKYO_WIND TOKYO_PRES TOKYO_R50_DIR TOKYO_R50_LONG TOKYO_R50_SHORT TOKYO_R30_DIR TOKYO_R30_LONG TOKYO_R30_SHORT TOKYO_LAND CMA_LAT CMA_LON CMA_CAT CMA_WIND CMA_PRES HKO_LAT HKO_LON HKO_CAT HKO_WIND HKO_PRES NEWDELHI_LAT NEWDELHI_LON NEWDELHI_GRADE NEWDELHI_WIND NEWDELHI_PRES NEWDELHI_CI NEWDELHI_DP NEWDELHI_POCI REUNION_LAT REUNION_LON REUNION_TYPE REUNION_WIND REUNION_PRES REUNION_TNUM REUNION_CI REUNION_RMW REUNION_R34_NE REUNION_R34_SE REUNION_R34_SW REUNION_R34_NW REUNION_R50_NE REUNION_R50_SE REUNION_R50_SW REUNION_R50_NW REUNION_R64_NE REUNION_R64_SE REUNION_R64_SW REUNION_R64_NW BOM_LAT BOM_LON BOM_TYPE BOM_WIND BOM_PRES BOM_TNUM BOM_CI BOM_RMW BOM_R34_NE BOM_R34_SE BOM_R34_SW BOM_R34_NW BOM_R50_NE BOM_R50_SE BOM_R50_SW BOM_R50_NW BOM_R64_NE BOM_R64_SE BOM_R64_SW BOM_R64_NW BOM_ROCI BOM_POCI BOM_EYE BOM_POS_METHOD BOM_PRES_METHOD NADI_LAT NADI_LON NADI_CAT NADI_WIND NADI_PRES WELLINGTON_LAT WELLINGTON_LON WELLINGTON_WIND WELLINGTON_PRES DS824_LAT DS824_LON DS824_STAGE DS824_WIND DS824_PRES TD9636_LAT TD9636_LON TD9636_STAGE TD9636_WIND TD9636_PRES TD9635_LAT TD9635_LON TD9635_WIND TD9635_PRES TD9635_ROCI NEUMANN_LAT NEUMANN_LON NEUMANN_CLASS NEUMANN_WIND NEUMANN_PRES MLC_LAT MLC_LON MLC_CLASS MLC_WIND MLC_PRES USA_GUST BOM_GUST BOM_GUST_PER REUNION_GUST REUNION_GUST_PER USA_SEAHGT USA_SEARAD_NE USA_SEARAD_SE USA_SEARAD_SW USA_SEARAD_NW STORM_SPEED STORM_DIR
1882300N11089 1882 39 NI BB NOT_NAMED 1882-10-27 00:00:00 TS 10.5000 88.8000 main 835 829 _________O____ -1 10.5000 88.8000 TC 30 4 330
1882300N11089 1882 39 NI BB NOT_NAMED 1882-10-27 03:00:00 TS 10.6750 88.6984 main 833 828 _________PO___ -1 10.7625 88.6476 TC 30 10.5000 88.8000 1 5 329
1882300N11089 1882 39 NI BB NOT_NAMED 1882-10-27 06:00:00 TS 10.8888 88.5657 main 832 823 _________OP___ -1 11.0000 88.5000 TC 30 10.7219 88.6641 1 5 328
1882300N11089 1882 39 NI BB NOT_NAMED 1882-10-27 09:00:00 TS 11.0907 88.4282 main 823 817 _________PP___ -1 11.2000 88.3574 TC 30 10.9450 88.5226 1 5 325
1882300N11089 1882 39 NI BB NOT_NAMED 1882-10-27 12:00:00 TS 11.2853 88.2849 main 822 812 _________OP___ -1 11.4000 88.2000 TC 30 11.1706 88.3697 1 5 324
1882300N11089 1882 39 NI BB NOT_NAMED 1882-10-27 15:00:00 TS 11.5250 88.1038 main 812 802 _________PO___ -1 11.6500 88.0075 TC 30 11.4000 88.2000 1 6 322
1882300N11089 1882 39 NI BB NOT_NAMED 1882-10-27 18:00:00 TS 11.7666 87.9052 main 807 777 _________OP___ -1 11.9000 87.8000 TC 30 11.6331 88.0103 1 6 320
1882300N11089 1882 39 NI BB NOT_NAMED 1882-10-27 21:00:00 TS 11.9900 87.7038 main 777 745 _________PP___ -1 12.1150 87.6000 TC 30 11.8650 87.8075 1 6 317
1882300N11089 1882 39 NI BB NOT_NAMED 1882-10-28 00:00:00 TS 12.1947 87.5005 main 745 714 _________OP___ -1 12.3000 87.4000 TC 30 12.0894 87.6010 1 6 314
1882300N11089 1882 39 NI BB NOT_NAMED 1882-10-28 03:00:00 TS 12.3750 87.2962 main 714 691 _________PO___ -1 12.4500 87.1925 TC 30 12.3000 87.4000 1 5 312
1882300N11089 1882 39 NI BB NOT_NAMED 1882-10-28 06:00:00 TS 12.5406 87.1048 main 691 660 _________OP___ -1 12.6000 87.0000 TC 30 12.4812 87.2096 1 5 314
1882300N11089 1882 39 NI BB NOT_NAMED 1882-10-28 09:00:00 TS 12.7212 86.9349 main 660 637 _________PP___ -1 12.7925 86.8425 TC 30 12.6500 87.0273 1 5 319
1882300N11089 1882 39 NI BB NOT_NAMED 1882-10-28 12:00:00 TS 12.9094 86.7782 main 637 605 _________OP___ -1 13.0000 86.7000 TC 30 12.8187 86.8564 1 5 321
1882300N11089 1882 39 NI BB NOT_NAMED 1882-10-28 15:00:00 TS 13.0963 86.6212 main 605 583 _________PO___ -1 13.1925 86.5425 TC 30 13.0000 86.7000 1 5 325
1882300N11089 1882 39 NI BB NOT_NAMED 1882-10-28 18:00:00 TS 13.3093 86.4843 main 583 560 _________OP___ -1 13.4000 86.4000 TC 30 13.2187 86.5686 1 5 332
1882300N11089 1882 39 NI BB NOT_NAMED 1882-10-28 21:00:00 TS 13.5537 86.3786 main 553 531 _________PP___ -1 13.6575 86.3074 TC 30 13.4499 86.4499 1 5 336
1882300N11089 1882 39 NI BB NOT_NAMED 1882-10-29 00:00:00 TS 13.7906 86.2656 main 531 500 _________OP___ -1 13.9000 86.2000 TC 30 13.6812 86.3311 1 5 328
1882300N11089 1882 39 NI BB NOT_NAMED 1882-10-29 03:00:00 TS 13.9788 86.1037 main 500 476 _________PO___ -1 14.0575 86.0075 TC 30 13.9000 86.2000 1 5 316
1882300N11089 1882 39 NI BB NOT_NAMED 1882-10-29 06:00:00 TS 14.1447 85.9136 main 476 446 _________OP___ -1 14.2000 85.8000 TC 30 14.0894 86.0272 1 5 315
1882300N11089 1882 39 NI BB NOT_NAMED 1882-10-29 09:00:00 TS 14.3288 85.7388 main 446 424 _________PP___ -1 14.3925 85.6350 TC 30 14.2651 85.8425 1 5 319
1882300N11089 1882 39 NI BB NOT_NAMED 1882-10-29 12:00:00 TS 14.5166 85.5808 main 424 403 _________OP___ -1 14.6000 85.5000 TC 30 14.4332 85.6616 1 5 323
1882300N11089 1882 39 NI BB NOT_NAMED 1882-10-29 15:00:00 TS 14.7037 85.4462 main 394 382 _________PO___ -1 14.8075 85.3925 TC 30 14.6000 85.5000 1 4 328
1882300N11089 1882 39 NI BB NOT_NAMED 1882-10-29 18:00:00 TS 14.8834 85.3452 main 373 367 _________OP___ -1 15.0000 85.3000 TC 30 14.7668 85.3904 1 4 332
1882300N11089 1882 39 NI BB NOT_NAMED 1882-10-29 21:00:00 TS 15.0424 85.2573 main 367 343 _________PP___ -1 15.1500 85.2149 TC 30 14.9348 85.2997 1 4 330
1882300N11089 1882 39 NI BB NOT_NAMED 1882-10-30 00:00:00 TS 15.2053 85.1546 main 343 312 _________OP___ -1 15.3000 85.1000 TC 30 15.1105 85.2091 1 4 325
1882300N11089 1882 39 NI BB NOT_NAMED 1882-10-30 03:00:00 TS 15.3925 85.0038 main 312 281 _________PO___ -1 15.4850 84.9075 TC 30 15.3000 85.1000 1 5 321
1882300N11089 1882 39 NI BB NOT_NAMED 1882-10-30 06:00:00 TS 15.6033 84.8233 main 281 257 _________OP___ -1 15.7000 84.7000 TC 30 15.5066 84.9466 1 6 323
1882300N11089 1882 39 NI BB NOT_NAMED 1882-10-30 09:00:00 TS 15.8350 84.6612 main 257 217 _________PP___ -1 15.9425 84.5499 TC 30 15.7275 84.7725 1 6 326
1882300N11089 1882 39 NI BB NOT_NAMED 1882-10-30 12:00:00 TS 16.0799 84.4936 main 217 186 _________OP___ -1 16.2000 84.4000 TC 30 15.9597 84.5872 1 6 325
1882300N11089 1882 39 NI BB NOT_NAMED 1882-10-30 15:00:00 TS 16.3250 84.3000 main 186 147 _________PO___ -1 16.4500 84.2000 TC 30 16.2000 84.4000 1 6 323
1882300N11089 1882 39 NI BB NOT_NAMED 1882-10-30 18:00:00 TS 16.5734 84.1105 main 147 123 _________OP___ -1 16.7000 84.0000 TC 30 16.4469 84.2209 1 6 326
1882300N11089 1882 39 NI BB NOT_NAMED 1882-10-30 21:00:00 TS 16.8250 83.9424 main 116 84 _________PP___ -1 16.9500 83.8424 TC 30 16.7000 84.0425 1 6 328
1882300N11089 1882 39 NI BB NOT_NAMED 1882-10-31 00:00:00 TS 17.0766 83.7839 main 84 54 _________OP___ -1 17.2000 83.7000 TC 30 16.9531 83.8678 1 6 329
1882300N11089 1882 39 NI BB NOT_NAMED 1882-10-31 03:00:00 TS 17.3287 83.6250 main 54 23 _________PO___ -1 17.4575 83.5500 TC 30 17.2000 83.7000 1 6 329
1882300N11089 1882 39 NI BB NOT_NAMED 1882-10-31 06:00:00 TS 17.5640 83.4773 main 23 0 _________OP___ -1 17.7000 83.4000 TC 30 17.4280 83.5547 1 5 328
1882300N11089 1882 39 NI BB NOT_NAMED 1882-10-31 09:00:00 TS 17.7749 83.3360 main 0 0 _________PP___ -1 17.9000 83.2574 TC 30 17.6498 83.4145 1 5 326
1882300N11089 1882 39 NI BB NOT_NAMED 1882-10-31 12:00:00 TS 17.9859 83.1836 main 0 0 _________OP___ -1 18.1000 83.1000 TC 30 17.8717 83.2671 1 5 325
1882300N11089 1882 39 NI BB NOT_NAMED 1882-10-31 15:00:00 TS 18.2212 83.0075 main 0 0 _________PO___ -1 18.3425 82.9150 TC 30 18.1000 83.1000 1 6 323
1882300N11089 1882 39 NI BB NOT_NAMED 1882-10-31 18:00:00 TS 18.4510 82.8165 main 0 0 _________OP___ -1 18.6000 82.7000 TC 30 18.3393 82.9039 1 6 320
1882300N11089 1882 39 NI BB NOT_NAMED 1882-10-31 21:00:00 TS 18.6938 82.5930 main 0 0 _________PP___ -1 18.8526 82.4576 TC 30 18.5879 82.6833 1 6 318
1882300N11089 1882 39 NI BB NOT_NAMED 1882-11-01 00:00:00 TS 18.9283 82.3640 main 0 0 _________OP___ -1 19.1000 82.2000 TC 30 18.8425 82.4460 1 6 318
1882300N11089 1882 39 NI BB NOT_NAMED 1882-11-01 03:00:00 NR 19.1000 82.2000 main 0 __________O___ -1 TC 19.1000 82.2000 1 5 318

IBTrACS Databaseについて

本データベースは、米国NOAAが公開する1842年以降の世界の熱帯低気圧のベストトラックデータアーカイブInternational Best Track Archive for Climate Stewardship (IBTrACS)を、ウェブで閲覧しやすい形式に変換したものです。

最終更新日:2021-10-21